SEJ555 VOMM-OPLA
Flight info
| Callsign | SEJ555 |
|---|---|
| Flight time | 2h 53m |
| Altitude | 36000 |
| Route | KAMGU2B KAMGU Q24 LAROB/N0456F380 Q24 DPN A589 ASARI A466 SULOM |
| Aircraft | B738/M-SDE2E3FGHIRWXY/LB1 |
Departure
| Time | 2026-04-27 19:01 |
|---|---|
| Airport | Chennai International Airport (VOMM) |
Arrival
| Time | 2026-04-27 21:54 |
|---|---|
| Airport | Allama Iqbal International Airport (OPLA) |
| Time | Latitude | Longitude | Altitude | Speed | Heading |
|---|---|---|---|---|---|
| 2026-04-27 18:03 | 12.98219 | 80.15993 | 51 ft | 0 kts | 159° |
| 2026-04-27 18:46 | 12.98224 | 80.15990 | 51 ft | 2 kts | 159° |
| 2026-04-27 18:46 | 12.98234 | 80.15987 | 51 ft | 1 kts | 159° |
| 2026-04-27 18:46 | 12.98247 | 80.15981 | 50 ft | 2 kts | 144° |
| 2026-04-27 18:46 | 12.98258 | 80.15971 | 50 ft | 2 kts | 133° |
| 2026-04-27 18:47 | 12.98268 | 80.15958 | 49 ft | 2 kts | 119° |
| 2026-04-27 18:47 | 12.98274 | 80.15944 | 49 ft | 2 kts | 106° |
| 2026-04-27 18:47 | 12.98277 | 80.15929 | 49 ft | 2 kts | 93° |
| 2026-04-27 18:47 | 12.98276 | 80.15913 | 49 ft | 2 kts | 80° |
| 2026-04-27 18:48 | 12.98273 | 80.15903 | 49 ft | 0 kts | 70° |
| 2026-04-27 18:48 | 12.98271 | 80.15897 | 49 ft | 0 kts | 68° |
| 2026-04-27 18:52 | 12.98278 | 80.15914 | 49 ft | 11 kts | 68° |
| 2026-04-27 18:52 | 12.98324 | 80.16041 | 49 ft | 20 kts | 70° |
| 2026-04-27 18:53 | 12.98453 | 80.16151 | 47 ft | 13 kts | 339° |
| 2026-04-27 18:53 | 12.98539 | 80.16159 | 45 ft | 13 kts | 60° |
| 2026-04-27 18:53 | 12.98568 | 80.16238 | 46 ft | 11 kts | 69° |
| 2026-04-27 18:53 | 12.98616 | 80.16367 | 46 ft | 29 kts | 70° |
| 2026-04-27 18:54 | 12.98693 | 80.16569 | 47 ft | 29 kts | 69° |
| 2026-04-27 18:54 | 12.98766 | 80.16764 | 47 ft | 28 kts | 68° |
| 2026-04-27 18:54 | 12.98835 | 80.16949 | 48 ft | 27 kts | 68° |
| 2026-04-27 18:54 | 12.98903 | 80.17127 | 49 ft | 25 kts | 69° |
| 2026-04-27 18:55 | 12.98977 | 80.17287 | 49 ft | 24 kts | 63° |
| 2026-04-27 18:55 | 12.99035 | 80.17441 | 49 ft | 21 kts | 71° |
| 2026-04-27 18:55 | 12.99086 | 80.17576 | 49 ft | 16 kts | 68° |
| 2026-04-27 18:55 | 12.99127 | 80.17671 | 49 ft | 16 kts | 54° |
| 2026-04-27 18:56 | 12.99229 | 80.17780 | 49 ft | 18 kts | 67° |
| 2026-04-27 18:56 | 12.99272 | 80.17896 | 50 ft | 16 kts | 69° |
| 2026-04-27 18:56 | 12.99314 | 80.18005 | 51 ft | 15 kts | 69° |
| 2026-04-27 18:56 | 12.99347 | 80.18091 | 51 ft | 12 kts | 68° |
| 2026-04-27 18:57 | 12.99362 | 80.18173 | 51 ft | 12 kts | 92° |
| 2026-04-27 18:57 | 12.99375 | 80.18261 | 51 ft | 13 kts | 60° |
| 2026-04-27 18:57 | 12.99429 | 80.18321 | 52 ft | 10 kts | 43° |
| 2026-04-27 18:57 | 12.99489 | 80.18375 | 52 ft | 13 kts | 41° |
| 2026-04-27 18:58 | 12.99563 | 80.18405 | 52 ft | 11 kts | 333° |
| 2026-04-27 18:58 | 12.99572 | 80.18366 | 52 ft | 8 kts | 250° |
| 2026-04-27 18:58 | 12.99554 | 80.18328 | 52 ft | 0 kts | 250° |
| 2026-04-27 19:00 | 12.99553 | 80.18325 | 52 ft | 3 kts | 250° |
| 2026-04-27 19:00 | 12.99453 | 80.18059 | 49 ft | 84 kts | 249° |
| 2026-04-27 19:00 | 12.99145 | 80.17238 | 46 ft | 160 kts | 247° |
| 2026-04-27 19:01 | 12.98726 | 80.16074 | 630 ft | 181 kts | 246° |
| 2026-04-27 19:01 | 12.98330 | 80.14868 | 1587 ft | 186 kts | 251° |
| 2026-04-27 19:01 | 12.98418 | 80.13522 | 2298 ft | 203 kts | 289° |
| 2026-04-27 19:01 | 12.99317 | 80.12380 | 2937 ft | 218 kts | 323° |
| 2026-04-27 19:02 | 13.00745 | 80.11734 | 3537 ft | 234 kts | 349° |
| 2026-04-27 19:02 | 13.02420 | 80.11785 | 4185 ft | 247 kts | 14° |
| 2026-04-27 19:02 | 13.04095 | 80.12299 | 4916 ft | 258 kts | 19° |
| 2026-04-27 19:02 | 13.05856 | 80.12884 | 5501 ft | 270 kts | 18° |
| 2026-04-27 19:03 | 13.07709 | 80.13341 | 5789 ft | 278 kts | 11° |
| 2026-04-27 19:03 | 13.09642 | 80.13629 | 5807 ft | 279 kts | 7° |
| 2026-04-27 19:03 | 13.11604 | 80.13856 | 5806 ft | 279 kts | 7° |
| 2026-04-27 19:03 | 13.12883 | 80.14007 | 5802 ft | 278 kts | 8° |
| 2026-04-27 19:04 | 13.15474 | 80.14349 | 5802 ft | 280 kts | 9° |
| 2026-04-27 19:04 | 13.17421 | 80.14627 | 5813 ft | 279 kts | 9° |
| 2026-04-27 19:04 | 13.19356 | 80.14909 | 5802 ft | 280 kts | 9° |
| 2026-04-27 19:04 | 13.21288 | 80.15112 | 5803 ft | 280 kts | 3° |
| 2026-04-27 19:05 | 13.23256 | 80.15078 | 5804 ft | 280 kts | 358° |
| 2026-04-27 19:05 | 13.25211 | 80.14938 | 5799 ft | 281 kts | 356° |
| 2026-04-27 19:05 | 13.27179 | 80.14779 | 5794 ft | 280 kts | 357° |
| 2026-04-27 19:05 | 13.29131 | 80.14637 | 5795 ft | 280 kts | 358° |
| 2026-04-27 19:06 | 13.31084 | 80.14481 | 5792 ft | 281 kts | 354° |
| 2026-04-27 19:06 | 13.33033 | 80.13995 | 5953 ft | 296 kts | 341° |
| 2026-04-27 19:06 | 13.34900 | 80.13184 | 7125 ft | 288 kts | 338° |
| 2026-04-27 19:06 | 13.36735 | 80.12321 | 8038 ft | 290 kts | 338° |
| 2026-04-27 19:07 | 13.38563 | 80.11476 | 8889 ft | 292 kts | 339° |
| 2026-04-27 19:07 | 13.40430 | 80.10642 | 9755 ft | 294 kts | 341° |
| 2026-04-27 19:07 | 13.42350 | 80.09806 | 10448 ft | 303 kts | 340° |
| 2026-04-27 19:07 | 13.44336 | 80.08951 | 10990 ft | 317 kts | 340° |
| 2026-04-27 19:08 | 13.46442 | 80.08044 | 11474 ft | 332 kts | 340° |
| 2026-04-27 19:08 | 13.48608 | 80.07109 | 11940 ft | 347 kts | 339° |
| 2026-04-27 19:08 | 13.50860 | 80.06134 | 12612 ft | 353 kts | 339° |
| 2026-04-27 19:08 | 13.53137 | 80.05144 | 13317 ft | 358 kts | 339° |
| 2026-04-27 19:09 | 13.55452 | 80.04136 | 14004 ft | 363 kts | 339° |
| 2026-04-27 19:09 | 13.57813 | 80.03110 | 14690 ft | 368 kts | 338° |
| 2026-04-27 19:09 | 13.60177 | 80.02081 | 15350 ft | 372 kts | 338° |
| 2026-04-27 19:09 | 13.62580 | 80.01036 | 16003 ft | 376 kts | 338° |
| 2026-04-27 19:10 | 13.65027 | 79.99972 | 16621 ft | 381 kts | 338° |
| 2026-04-27 19:10 | 13.67499 | 79.98898 | 17212 ft | 386 kts | 338° |
| 2026-04-27 19:10 | 13.69973 | 79.97823 | 17840 ft | 389 kts | 338° |
| 2026-04-27 19:10 | 13.71655 | 79.97092 | 18298 ft | 390 kts | 338° |
| 2026-04-27 19:11 | 13.75014 | 79.95631 | 19173 ft | 393 kts | 338° |
| 2026-04-27 19:11 | 13.77563 | 79.94522 | 19769 ft | 396 kts | 338° |
| 2026-04-27 19:11 | 13.80127 | 79.93408 | 20356 ft | 399 kts | 338° |
| 2026-04-27 19:11 | 13.82710 | 79.92284 | 20941 ft | 401 kts | 338° |
| 2026-04-27 19:12 | 13.85294 | 79.91161 | 21503 ft | 404 kts | 338° |
| 2026-04-27 19:12 | 13.87917 | 79.90019 | 22003 ft | 408 kts | 337° |
| 2026-04-27 19:12 | 13.90521 | 79.88885 | 22528 ft | 411 kts | 337° |
| 2026-04-27 19:12 | 13.93166 | 79.87732 | 23113 ft | 412 kts | 337° |
| 2026-04-27 19:13 | 13.95841 | 79.86566 | 23616 ft | 415 kts | 337° |
| 2026-04-27 19:13 | 13.98528 | 79.85394 | 24140 ft | 418 kts | 336° |
| 2026-04-27 19:13 | 14.01195 | 79.84232 | 24687 ft | 419 kts | 336° |
| 2026-04-27 19:13 | 14.03919 | 79.83043 | 25195 ft | 421 kts | 336° |
| 2026-04-27 19:14 | 14.06658 | 79.81847 | 25676 ft | 424 kts | 336° |
| 2026-04-27 19:14 | 14.09429 | 79.80639 | 26193 ft | 426 kts | 336° |
| 2026-04-27 19:14 | 14.12170 | 79.79443 | 26699 ft | 427 kts | 335° |
| 2026-04-27 19:14 | 14.14889 | 79.78256 | 27159 ft | 429 kts | 335° |
| 2026-04-27 19:15 | 14.17690 | 79.77032 | 27610 ft | 432 kts | 335° |
| 2026-04-27 19:15 | 14.20508 | 79.75801 | 27994 ft | 436 kts | 335° |
| 2026-04-27 19:15 | 14.23304 | 79.74579 | 28414 ft | 438 kts | 335° |
| 2026-04-27 19:15 | 14.26160 | 79.73331 | 28840 ft | 441 kts | 335° |
| 2026-04-27 19:16 | 14.28972 | 79.72101 | 29211 ft | 444 kts | 334° |
| 2026-04-27 19:16 | 14.30891 | 79.71262 | 29438 ft | 446 kts | 334° |
| 2026-04-27 19:16 | 14.34741 | 79.69577 | 29902 ft | 451 kts | 334° |
| 2026-04-27 19:16 | 14.37617 | 79.68318 | 30236 ft | 454 kts | 334° |
| 2026-04-27 19:17 | 14.40559 | 79.67032 | 30691 ft | 455 kts | 333° |
| 2026-04-27 19:17 | 14.43450 | 79.65768 | 31208 ft | 453 kts | 333° |
| 2026-04-27 19:17 | 14.46355 | 79.64497 | 31718 ft | 452 kts | 333° |
| 2026-04-27 19:17 | 14.49271 | 79.63222 | 32194 ft | 451 kts | 333° |
| 2026-04-27 19:18 | 14.52152 | 79.61960 | 32617 ft | 451 kts | 332° |
| 2026-04-27 19:18 | 14.55028 | 79.60699 | 33042 ft | 451 kts | 332° |
| 2026-04-27 19:18 | 14.57934 | 79.59424 | 33483 ft | 451 kts | 332° |
| 2026-04-27 19:18 | 14.60836 | 79.58152 | 34010 ft | 449 kts | 332° |
| 2026-04-27 19:19 | 14.63686 | 79.56902 | 34496 ft | 448 kts | 332° |
| 2026-04-27 19:19 | 14.66566 | 79.55640 | 34979 ft | 447 kts | 332° |
| 2026-04-27 19:19 | 14.69455 | 79.54372 | 35517 ft | 444 kts | 331° |
| 2026-04-27 19:19 | 14.72298 | 79.53123 | 35781 ft | 445 kts | 331° |
| 2026-04-27 19:20 | 14.75164 | 79.51862 | 35776 ft | 446 kts | 331° |
| 2026-04-27 19:20 | 14.80888 | 79.49346 | 35776 ft | 442 kts | 331° |
| 2026-04-27 19:21 | 14.86574 | 79.46845 | 35777 ft | 441 kts | 331° |
| 2026-04-27 19:21 | 14.92241 | 79.44350 | 35778 ft | 441 kts | 331° |
| 2026-04-27 19:22 | 14.98012 | 79.41981 | 35779 ft | 445 kts | 336° |
| 2026-04-27 19:22 | 15.04034 | 79.40266 | 35782 ft | 449 kts | 341° |
| 2026-04-27 19:23 | 15.10166 | 79.38813 | 35784 ft | 449 kts | 341° |
| 2026-04-27 19:23 | 15.16316 | 79.37392 | 35785 ft | 449 kts | 341° |
| 2026-04-27 19:24 | 15.22444 | 79.35952 | 35786 ft | 447 kts | 341° |
| 2026-04-27 19:24 | 15.28593 | 79.34483 | 35784 ft | 449 kts | 341° |
| 2026-04-27 19:25 | 15.34792 | 79.32990 | 35781 ft | 447 kts | 341° |
| 2026-04-27 19:25 | 15.40888 | 79.31515 | 35780 ft | 448 kts | 340° |
| 2026-04-27 19:26 | 15.47010 | 79.30029 | 35781 ft | 448 kts | 340° |
| 2026-04-27 19:26 | 15.53082 | 79.28556 | 35788 ft | 446 kts | 340° |
| 2026-04-27 19:27 | 15.59187 | 79.27072 | 35787 ft | 448 kts | 340° |
| 2026-04-27 19:27 | 15.65313 | 79.25583 | 35788 ft | 447 kts | 340° |
| 2026-04-27 19:28 | 15.71375 | 79.24108 | 35793 ft | 448 kts | 340° |
| 2026-04-27 19:28 | 15.77483 | 79.22623 | 35802 ft | 447 kts | 340° |
| 2026-04-27 19:29 | 15.83548 | 79.21146 | 35809 ft | 447 kts | 340° |
| 2026-04-27 19:29 | 15.89606 | 79.19670 | 35820 ft | 446 kts | 340° |
| 2026-04-27 19:30 | 15.95716 | 79.18179 | 35827 ft | 447 kts | 340° |
| 2026-04-27 19:30 | 16.01812 | 79.16695 | 35838 ft | 446 kts | 340° |
| 2026-04-27 19:31 | 16.07872 | 79.15233 | 35843 ft | 446 kts | 340° |
| 2026-04-27 19:31 | 16.13981 | 79.13760 | 35840 ft | 447 kts | 340° |
| 2026-04-27 19:32 | 16.20066 | 79.12293 | 35836 ft | 446 kts | 340° |
| 2026-04-27 19:32 | 16.26116 | 79.10833 | 35830 ft | 446 kts | 340° |
| 2026-04-27 19:33 | 16.32184 | 79.09366 | 35828 ft | 445 kts | 340° |
| 2026-04-27 19:33 | 16.38334 | 79.07872 | 35821 ft | 455 kts | 340° |
| 2026-04-27 19:34 | 16.44425 | 79.06405 | 35817 ft | 442 kts | 340° |
| 2026-04-27 19:34 | 16.50467 | 79.04945 | 35813 ft | 446 kts | 340° |
| 2026-04-27 19:35 | 16.56588 | 79.03458 | 35806 ft | 445 kts | 340° |
| 2026-04-27 19:35 | 16.62626 | 79.01994 | 35807 ft | 444 kts | 340° |
| 2026-04-27 19:36 | 16.68695 | 79.00517 | 35804 ft | 446 kts | 340° |
| 2026-04-27 19:36 | 16.74725 | 78.99051 | 35798 ft | 445 kts | 340° |
| 2026-04-27 19:37 | 16.80806 | 78.97575 | 35798 ft | 444 kts | 340° |
| 2026-04-27 19:37 | 16.86819 | 78.96112 | 35792 ft | 445 kts | 339° |
| 2026-04-27 19:38 | 16.92881 | 78.94638 | 35801 ft | 443 kts | 339° |
| 2026-04-27 19:38 | 16.98933 | 78.93162 | 35805 ft | 446 kts | 339° |
| 2026-04-27 19:39 | 17.04969 | 78.91693 | 35809 ft | 443 kts | 339° |
| 2026-04-27 19:39 | 17.11012 | 78.90219 | 35816 ft | 444 kts | 339° |
| 2026-04-27 19:40 | 17.17047 | 78.88746 | 35815 ft | 443 kts | 339° |
| 2026-04-27 19:40 | 17.23079 | 78.87273 | 35818 ft | 444 kts | 339° |
| 2026-04-27 19:41 | 17.29122 | 78.85796 | 35816 ft | 443 kts | 339° |
| 2026-04-27 19:41 | 17.35136 | 78.84325 | 35822 ft | 445 kts | 339° |
| 2026-04-27 19:42 | 17.41201 | 78.82842 | 35819 ft | 442 kts | 339° |
| 2026-04-27 19:42 | 17.47243 | 78.81362 | 35819 ft | 444 kts | 339° |
| 2026-04-27 19:43 | 17.53296 | 78.79887 | 35829 ft | 444 kts | 339° |
| 2026-04-27 19:43 | 17.59357 | 78.78420 | 35836 ft | 443 kts | 339° |
| 2026-04-27 19:44 | 17.65396 | 78.76958 | 35842 ft | 444 kts | 339° |
| 2026-04-27 19:44 | 17.71435 | 78.75494 | 35853 ft | 443 kts | 339° |
| 2026-04-27 19:45 | 17.77461 | 78.74030 | 35857 ft | 443 kts | 339° |
| 2026-04-27 19:45 | 17.83516 | 78.72558 | 35855 ft | 444 kts | 339° |
| 2026-04-27 19:46 | 17.89626 | 78.71069 | 35852 ft | 445 kts | 339° |
| 2026-04-27 19:46 | 17.95678 | 78.69596 | 35851 ft | 446 kts | 339° |
| 2026-04-27 19:47 | 18.01737 | 78.68118 | 35849 ft | 446 kts | 339° |
| 2026-04-27 19:47 | 18.07797 | 78.66644 | 35842 ft | 446 kts | 339° |
| 2026-04-27 19:48 | 18.13885 | 78.65157 | 35836 ft | 442 kts | 339° |
| 2026-04-27 19:48 | 18.19933 | 78.63664 | 35829 ft | 444 kts | 339° |
| 2026-04-27 19:49 | 18.25964 | 78.62166 | 35824 ft | 443 kts | 339° |
| 2026-04-27 19:49 | 18.31980 | 78.60671 | 35824 ft | 443 kts | 339° |
| 2026-04-27 19:50 | 18.38034 | 78.59168 | 35820 ft | 443 kts | 338° |
| 2026-04-27 19:50 | 18.44048 | 78.57674 | 35827 ft | 445 kts | 338° |
| 2026-04-27 19:51 | 18.50079 | 78.56175 | 35827 ft | 443 kts | 339° |
| 2026-04-27 19:51 | 18.56088 | 78.54684 | 35822 ft | 441 kts | 338° |
| 2026-04-27 19:52 | 18.62115 | 78.53182 | 35816 ft | 444 kts | 339° |
| 2026-04-27 19:52 | 18.68143 | 78.51682 | 35803 ft | 441 kts | 338° |
| 2026-04-27 19:53 | 18.77187 | 78.49430 | 35787 ft | 441 kts | 338° |
| 2026-04-27 19:53 | 18.83174 | 78.47936 | 35783 ft | 441 kts | 338° |
| 2026-04-27 19:54 | 18.89208 | 78.46427 | 35784 ft | 442 kts | 338° |
| 2026-04-27 19:54 | 18.95217 | 78.44926 | 35777 ft | 440 kts | 338° |
| 2026-04-27 19:55 | 19.01219 | 78.43428 | 35773 ft | 441 kts | 338° |
| 2026-04-27 19:55 | 19.07191 | 78.41935 | 35781 ft | 440 kts | 338° |
| 2026-04-27 19:56 | 19.13193 | 78.40430 | 35784 ft | 439 kts | 338° |
| 2026-04-27 19:56 | 19.19171 | 78.38927 | 35784 ft | 439 kts | 338° |
| 2026-04-27 19:57 | 19.25134 | 78.37367 | 35792 ft | 440 kts | 337° |
| 2026-04-27 19:57 | 19.31092 | 78.35785 | 35788 ft | 437 kts | 337° |
| 2026-04-27 19:58 | 19.37035 | 78.34207 | 35788 ft | 440 kts | 337° |
| 2026-04-27 19:58 | 19.42999 | 78.32629 | 35781 ft | 437 kts | 337° |
| 2026-04-27 19:59 | 19.48952 | 78.31055 | 35775 ft | 435 kts | 337° |
| 2026-04-27 19:59 | 19.54823 | 78.29503 | 35770 ft | 436 kts | 337° |
| 2026-04-27 20:00 | 19.60736 | 78.27940 | 35768 ft | 437 kts | 337° |
| 2026-04-27 20:00 | 19.66631 | 78.26396 | 35769 ft | 435 kts | 337° |
| 2026-04-27 20:01 | 19.72520 | 78.24856 | 35770 ft | 437 kts | 337° |
| 2026-04-27 20:01 | 19.78465 | 78.23298 | 35773 ft | 435 kts | 337° |
| 2026-04-27 20:02 | 19.84337 | 78.21757 | 35767 ft | 435 kts | 337° |
| 2026-04-27 20:02 | 19.90215 | 78.20213 | 35766 ft | 434 kts | 336° |
| 2026-04-27 20:03 | 19.96118 | 78.18662 | 35761 ft | 433 kts | 336° |
| 2026-04-27 20:03 | 20.01980 | 78.17119 | 35757 ft | 432 kts | 336° |
| 2026-04-27 20:04 | 20.07837 | 78.15576 | 35761 ft | 433 kts | 336° |
| 2026-04-27 20:04 | 20.12725 | 78.14288 | 35770 ft | 432 kts | 336° |
| 2026-04-27 20:05 | 20.19548 | 78.12488 | 35778 ft | 433 kts | 336° |
| 2026-04-27 20:05 | 20.25385 | 78.10946 | 35782 ft | 433 kts | 336° |
| 2026-04-27 20:06 | 20.31255 | 78.09395 | 35779 ft | 432 kts | 336° |
| 2026-04-27 20:06 | 20.37124 | 78.07846 | 35780 ft | 431 kts | 336° |
| 2026-04-27 20:07 | 20.42944 | 78.06306 | 35777 ft | 431 kts | 336° |
| 2026-04-27 20:07 | 20.48796 | 78.04758 | 35776 ft | 432 kts | 336° |
| 2026-04-27 20:08 | 20.54640 | 78.03207 | 35773 ft | 431 kts | 336° |
| 2026-04-27 20:08 | 20.60507 | 78.01685 | 35773 ft | 433 kts | 337° |
| 2026-04-27 20:09 | 20.66377 | 78.00253 | 35771 ft | 432 kts | 338° |
| 2026-04-27 20:09 | 20.72284 | 77.98822 | 35766 ft | 433 kts | 338° |
| 2026-04-27 20:10 | 20.78155 | 77.97397 | 35764 ft | 431 kts | 338° |
| 2026-04-27 20:10 | 20.84054 | 77.95953 | 35764 ft | 432 kts | 338° |
| 2026-04-27 20:11 | 20.89901 | 77.94517 | 35765 ft | 431 kts | 337° |
| 2026-04-27 20:11 | 20.95784 | 77.93072 | 35763 ft | 432 kts | 338° |
| 2026-04-27 20:12 | 21.00719 | 77.91853 | 35765 ft | 432 kts | 338° |
| 2026-04-27 20:12 | 21.07534 | 77.90179 | 35770 ft | 428 kts | 338° |
| 2026-04-27 20:13 | 21.13373 | 77.88735 | 35771 ft | 434 kts | 338° |
| 2026-04-27 20:13 | 21.19273 | 77.87279 | 35775 ft | 430 kts | 338° |
| 2026-04-27 20:14 | 21.25119 | 77.85834 | 35779 ft | 430 kts | 338° |
| 2026-04-27 20:14 | 21.30963 | 77.84392 | 35797 ft | 430 kts | 338° |
| 2026-04-27 20:15 | 21.36842 | 77.82938 | 35815 ft | 431 kts | 339° |
| 2026-04-27 20:15 | 21.42688 | 77.81491 | 35837 ft | 430 kts | 338° |
| 2026-04-27 20:16 | 21.48547 | 77.80039 | 35858 ft | 429 kts | 339° |
| 2026-04-27 20:16 | 21.54421 | 77.78580 | 35869 ft | 430 kts | 339° |
| 2026-04-27 20:17 | 21.60264 | 77.77132 | 35866 ft | 430 kts | 339° |
| 2026-04-27 20:17 | 21.65157 | 77.75916 | 35865 ft | 431 kts | 339° |
| 2026-04-27 20:18 | 21.71955 | 77.74228 | 35863 ft | 427 kts | 339° |
| 2026-04-27 20:18 | 21.77844 | 77.72762 | 35856 ft | 431 kts | 339° |
| 2026-04-27 20:19 | 21.83713 | 77.71298 | 35852 ft | 431 kts | 340° |
| 2026-04-27 20:19 | 21.89523 | 77.69854 | 35848 ft | 428 kts | 340° |
| 2026-04-27 20:20 | 21.95330 | 77.68404 | 35849 ft | 429 kts | 340° |
| 2026-04-27 20:20 | 22.01202 | 77.66937 | 35853 ft | 430 kts | 340° |
| 2026-04-27 20:21 | 22.07022 | 77.65480 | 35843 ft | 427 kts | 340° |
| 2026-04-27 20:21 | 22.12867 | 77.63972 | 35832 ft | 428 kts | 340° |
| 2026-04-27 20:22 | 22.18655 | 77.62457 | 35825 ft | 430 kts | 340° |
| 2026-04-27 20:22 | 22.24534 | 77.60917 | 35808 ft | 429 kts | 340° |
| 2026-04-27 20:23 | 22.30354 | 77.59399 | 35799 ft | 427 kts | 340° |
| 2026-04-27 20:23 | 22.36137 | 77.57890 | 35793 ft | 429 kts | 341° |
| 2026-04-27 20:24 | 22.41956 | 77.56370 | 35793 ft | 430 kts | 341° |
| 2026-04-27 20:24 | 22.47774 | 77.54852 | 35781 ft | 429 kts | 341° |
| 2026-04-27 20:25 | 22.53589 | 77.53333 | 35776 ft | 429 kts | 341° |
| 2026-04-27 20:25 | 22.59430 | 77.51804 | 35774 ft | 431 kts | 341° |
| 2026-04-27 20:26 | 22.65258 | 77.50279 | 35777 ft | 429 kts | 342° |
| 2026-04-27 20:26 | 22.71056 | 77.48760 | 35787 ft | 430 kts | 342° |
| 2026-04-27 20:27 | 22.76922 | 77.47221 | 35789 ft | 431 kts | 342° |
| 2026-04-27 20:27 | 22.82757 | 77.45691 | 35796 ft | 429 kts | 342° |
| 2026-04-27 20:28 | 22.88561 | 77.44165 | 35797 ft | 430 kts | 342° |
| 2026-04-27 20:28 | 22.93444 | 77.42881 | 35798 ft | 431 kts | 342° |
| 2026-04-27 20:29 | 23.00241 | 77.41091 | 35802 ft | 431 kts | 342° |
| 2026-04-27 20:29 | 23.06084 | 77.39552 | 35803 ft | 431 kts | 342° |
| 2026-04-27 20:30 | 23.11938 | 77.38010 | 35794 ft | 430 kts | 342° |
| 2026-04-27 20:30 | 23.17757 | 77.36474 | 35786 ft | 430 kts | 343° |
| 2026-04-27 20:31 | 23.23606 | 77.34929 | 35792 ft | 429 kts | 342° |
| 2026-04-27 20:31 | 23.29513 | 77.33663 | 35787 ft | 433 kts | 349° |
| 2026-04-27 20:32 | 23.35549 | 77.33163 | 35784 ft | 435 kts | 353° |
| 2026-04-27 20:32 | 23.41612 | 77.32919 | 35790 ft | 436 kts | 354° |
| 2026-04-27 20:33 | 23.47714 | 77.32696 | 35793 ft | 435 kts | 354° |
| 2026-04-27 20:33 | 23.53778 | 77.32453 | 35801 ft | 434 kts | 354° |
| 2026-04-27 20:34 | 23.59842 | 77.32188 | 35800 ft | 435 kts | 354° |
| 2026-04-27 20:34 | 23.65906 | 77.31911 | 35794 ft | 434 kts | 354° |
| 2026-04-27 20:35 | 23.71934 | 77.31632 | 35791 ft | 434 kts | 354° |
| 2026-04-27 20:35 | 23.78008 | 77.31348 | 35786 ft | 433 kts | 354° |
| 2026-04-27 20:36 | 23.84040 | 77.31065 | 35778 ft | 433 kts | 354° |
| 2026-04-27 20:36 | 23.90076 | 77.30782 | 35783 ft | 434 kts | 354° |
| 2026-04-27 20:37 | 23.96129 | 77.30498 | 35785 ft | 434 kts | 354° |
| 2026-04-27 20:37 | 24.02177 | 77.30213 | 35781 ft | 433 kts | 354° |
| 2026-04-27 20:38 | 24.08215 | 77.29929 | 35783 ft | 434 kts | 354° |
| 2026-04-27 20:38 | 24.14271 | 77.29645 | 35785 ft | 433 kts | 354° |
| 2026-04-27 20:39 | 24.20310 | 77.29360 | 35790 ft | 432 kts | 354° |
| 2026-04-27 20:39 | 24.26305 | 77.29077 | 35790 ft | 433 kts | 354° |
| 2026-04-27 20:40 | 24.32344 | 77.28792 | 35796 ft | 433 kts | 354° |
| 2026-04-27 20:40 | 24.38419 | 77.28503 | 35781 ft | 443 kts | 354° |
| 2026-04-27 20:41 | 24.44709 | 77.28200 | 35780 ft | 458 kts | 355° |
| 2026-04-27 20:41 | 24.51112 | 77.27897 | 35778 ft | 456 kts | 355° |
| 2026-04-27 20:42 | 24.57461 | 77.27599 | 35772 ft | 456 kts | 354° |
| 2026-04-27 20:42 | 24.63851 | 77.27297 | 35771 ft | 457 kts | 355° |
| 2026-04-27 20:43 | 24.70180 | 77.26997 | 35772 ft | 457 kts | 355° |
| 2026-04-27 20:43 | 24.76548 | 77.26714 | 35764 ft | 456 kts | 355° |
| 2026-04-27 20:44 | 24.82909 | 77.26447 | 35756 ft | 457 kts | 355° |
| 2026-04-27 20:44 | 24.89283 | 77.26180 | 35759 ft | 456 kts | 355° |
| 2026-04-27 20:45 | 24.95651 | 77.25912 | 35750 ft | 456 kts | 355° |
| 2026-04-27 20:45 | 25.01979 | 77.25645 | 35750 ft | 457 kts | 355° |
| 2026-04-27 20:46 | 25.08365 | 77.25405 | 35741 ft | 458 kts | 355° |
| 2026-04-27 20:46 | 25.14739 | 77.25181 | 35735 ft | 457 kts | 355° |
| 2026-04-27 20:47 | 25.21108 | 77.24957 | 35732 ft | 457 kts | 355° |
| 2026-04-27 20:47 | 25.27510 | 77.24728 | 35727 ft | 458 kts | 355° |
| 2026-04-27 20:48 | 25.32820 | 77.24536 | 35719 ft | 458 kts | 355° |
| 2026-04-27 20:48 | 25.40256 | 77.24266 | 35722 ft | 458 kts | 355° |
| 2026-04-27 20:49 | 25.46628 | 77.24034 | 35723 ft | 459 kts | 355° |
| 2026-04-27 20:49 | 25.53044 | 77.23801 | 35720 ft | 458 kts | 355° |
| 2026-04-27 20:50 | 25.59438 | 77.23567 | 35729 ft | 459 kts | 355° |
| 2026-04-27 20:50 | 25.65843 | 77.23334 | 35726 ft | 460 kts | 355° |
| 2026-04-27 20:51 | 25.72230 | 77.23100 | 35736 ft | 460 kts | 355° |
| 2026-04-27 20:51 | 25.78647 | 77.22865 | 35727 ft | 459 kts | 355° |
| 2026-04-27 20:52 | 25.85045 | 77.22630 | 35732 ft | 459 kts | 355° |
| 2026-04-27 20:52 | 25.91485 | 77.22394 | 35734 ft | 461 kts | 355° |
| 2026-04-27 20:53 | 25.97882 | 77.22159 | 35737 ft | 461 kts | 355° |
| 2026-04-27 20:53 | 26.04301 | 77.21922 | 35730 ft | 461 kts | 355° |
| 2026-04-27 20:54 | 26.13963 | 77.21568 | 35703 ft | 462 kts | 355° |
| 2026-04-27 20:55 | 26.20410 | 77.21283 | 35681 ft | 461 kts | 354° |
| 2026-04-27 20:55 | 26.26825 | 77.20944 | 35666 ft | 462 kts | 354° |
| 2026-04-27 20:56 | 26.33297 | 77.20596 | 35672 ft | 463 kts | 354° |
| 2026-04-27 20:56 | 26.39726 | 77.20257 | 35673 ft | 463 kts | 354° |
| 2026-04-27 20:57 | 26.46222 | 77.19919 | 35678 ft | 463 kts | 354° |
| 2026-04-27 20:57 | 26.52697 | 77.19585 | 35669 ft | 465 kts | 354° |
| 2026-04-27 20:58 | 26.59154 | 77.19252 | 35663 ft | 465 kts | 353° |
| 2026-04-27 20:58 | 26.65639 | 77.18916 | 35682 ft | 465 kts | 354° |
| 2026-04-27 20:59 | 26.72134 | 77.18581 | 35689 ft | 467 kts | 353° |
| 2026-04-27 20:59 | 26.78603 | 77.18246 | 35687 ft | 466 kts | 354° |
| 2026-04-27 21:00 | 26.85125 | 77.17909 | 35680 ft | 466 kts | 353° |
| 2026-04-27 21:00 | 26.91601 | 77.17574 | 35664 ft | 467 kts | 353° |
| 2026-04-27 21:01 | 26.98116 | 77.17236 | 35663 ft | 466 kts | 353° |
| 2026-04-27 21:01 | 27.04605 | 77.16899 | 35656 ft | 468 kts | 353° |
| 2026-04-27 21:02 | 27.11172 | 77.16557 | 35651 ft | 468 kts | 353° |
| 2026-04-27 21:02 | 27.17669 | 77.16219 | 35653 ft | 468 kts | 353° |
| 2026-04-27 21:03 | 27.24162 | 77.15881 | 35649 ft | 468 kts | 353° |
| 2026-04-27 21:03 | 27.30692 | 77.15541 | 35648 ft | 467 kts | 353° |
| 2026-04-27 21:04 | 27.37171 | 77.15202 | 35652 ft | 468 kts | 353° |
| 2026-04-27 21:04 | 27.43707 | 77.14861 | 35651 ft | 468 kts | 353° |
| 2026-04-27 21:05 | 27.50208 | 77.14522 | 35654 ft | 467 kts | 353° |
| 2026-04-27 21:05 | 27.56707 | 77.14181 | 35655 ft | 468 kts | 353° |
| 2026-04-27 21:06 | 27.63229 | 77.13840 | 35654 ft | 467 kts | 353° |
| 2026-04-27 21:06 | 27.69746 | 77.13509 | 35655 ft | 466 kts | 353° |
| 2026-04-27 21:07 | 27.76273 | 77.13200 | 35655 ft | 467 kts | 353° |
| 2026-04-27 21:07 | 27.82752 | 77.12896 | 35647 ft | 467 kts | 353° |
| 2026-04-27 21:08 | 27.89294 | 77.12587 | 35636 ft | 466 kts | 354° |
| 2026-04-27 21:08 | 27.95791 | 77.12279 | 35635 ft | 464 kts | 353° |
| 2026-04-27 21:09 | 28.02250 | 77.11972 | 35637 ft | 464 kts | 353° |
| 2026-04-27 21:09 | 28.08732 | 77.11662 | 35637 ft | 465 kts | 354° |
| 2026-04-27 21:10 | 28.15216 | 77.11351 | 35642 ft | 466 kts | 354° |
| 2026-04-27 21:10 | 28.21723 | 77.11038 | 35647 ft | 466 kts | 353° |
| 2026-04-27 21:11 | 28.28238 | 77.10726 | 35653 ft | 467 kts | 353° |
| 2026-04-27 21:11 | 28.34775 | 77.10411 | 35653 ft | 466 kts | 353° |
| 2026-04-27 21:12 | 28.41276 | 77.10098 | 35655 ft | 465 kts | 354° |
| 2026-04-27 21:12 | 28.47742 | 77.09672 | 35657 ft | 464 kts | 349° |
| 2026-04-27 21:13 | 28.53823 | 77.07549 | 35665 ft | 453 kts | 327° |
| 2026-04-27 21:13 | 28.58713 | 77.03159 | 35661 ft | 446 kts | 311° |
| 2026-04-27 21:14 | 28.62408 | 76.97504 | 35666 ft | 444 kts | 297° |
| 2026-04-27 21:14 | 28.65264 | 76.91325 | 35659 ft | 441 kts | 294° |
| 2026-04-27 21:15 | 28.67978 | 76.85065 | 35654 ft | 440 kts | 294° |
| 2026-04-27 21:15 | 28.70730 | 76.78802 | 35646 ft | 440 kts | 295° |
| 2026-04-27 21:16 | 28.73493 | 76.72627 | 35634 ft | 441 kts | 295° |
| 2026-04-27 21:16 | 28.76304 | 76.66399 | 35635 ft | 442 kts | 295° |
| 2026-04-27 21:17 | 28.79121 | 76.60175 | 35632 ft | 440 kts | 295° |
| 2026-04-27 21:17 | 28.81927 | 76.53972 | 35631 ft | 441 kts | 295° |
| 2026-04-27 21:18 | 28.84725 | 76.47777 | 35636 ft | 440 kts | 296° |
| 2026-04-27 21:18 | 28.87535 | 76.41543 | 35639 ft | 441 kts | 296° |
| 2026-04-27 21:19 | 28.90320 | 76.35358 | 35641 ft | 439 kts | 296° |
| 2026-04-27 21:19 | 28.93112 | 76.29150 | 35632 ft | 430 kts | 295° |
| 2026-04-27 21:20 | 28.95768 | 76.23240 | 35636 ft | 410 kts | 295° |
| 2026-04-27 21:20 | 28.97055 | 76.20367 | 35635 ft | 412 kts | 295° |
| 2026-04-27 21:20 | 28.99674 | 76.14508 | 35629 ft | 415 kts | 295° |
| 2026-04-27 21:21 | 29.02307 | 76.08617 | 35627 ft | 415 kts | 295° |
| 2026-04-27 21:21 | 29.04922 | 76.02762 | 35627 ft | 414 kts | 295° |
| 2026-04-27 21:22 | 29.07543 | 75.96886 | 35631 ft | 414 kts | 295° |
| 2026-04-27 21:22 | 29.10171 | 75.90983 | 35628 ft | 414 kts | 295° |
| 2026-04-27 21:23 | 29.12775 | 75.85128 | 35625 ft | 414 kts | 295° |
| 2026-04-27 21:23 | 29.15377 | 75.79263 | 35625 ft | 414 kts | 295° |
| 2026-04-27 21:24 | 29.17995 | 75.73357 | 35626 ft | 414 kts | 295° |
| 2026-04-27 21:24 | 29.20596 | 75.67484 | 35639 ft | 414 kts | 295° |
| 2026-04-27 21:25 | 29.23204 | 75.61585 | 35638 ft | 415 kts | 295° |
| 2026-04-27 21:25 | 29.25800 | 75.55703 | 35638 ft | 414 kts | 295° |
| 2026-04-27 21:26 | 29.28392 | 75.49827 | 35642 ft | 413 kts | 295° |
| 2026-04-27 21:26 | 29.31666 | 75.44402 | 35643 ft | 420 kts | 313° |
| 2026-04-27 21:27 | 29.36468 | 75.40546 | 35642 ft | 429 kts | 329° |
| 2026-04-27 21:27 | 29.42129 | 75.38192 | 35641 ft | 435 kts | 344° |
| 2026-04-27 21:28 | 29.48128 | 75.37088 | 35641 ft | 438 kts | 348° |
| 2026-04-27 21:28 | 29.54223 | 75.36248 | 35652 ft | 439 kts | 349° |
| 2026-04-27 21:29 | 29.60330 | 75.35384 | 35650 ft | 440 kts | 348° |
| 2026-04-27 21:29 | 29.66378 | 75.34473 | 35657 ft | 439 kts | 348° |
| 2026-04-27 21:30 | 29.72431 | 75.33522 | 35657 ft | 439 kts | 347° |
| 2026-04-27 21:30 | 29.78512 | 75.32548 | 35656 ft | 439 kts | 347° |
| 2026-04-27 21:31 | 29.84559 | 75.31570 | 35657 ft | 439 kts | 347° |
| 2026-04-27 21:31 | 29.90586 | 75.30592 | 35610 ft | 437 kts | 347° |
| 2026-04-27 21:32 | 29.93593 | 75.30106 | 35328 ft | 430 kts | 347° |
| 2026-04-27 21:32 | 29.96535 | 75.29631 | 34880 ft | 429 kts | 347° |
| 2026-04-27 21:32 | 29.99509 | 75.29147 | 34273 ft | 431 kts | 347° |
| 2026-04-27 21:32 | 30.02489 | 75.28661 | 33597 ft | 432 kts | 347° |
| 2026-04-27 21:33 | 30.05467 | 75.28174 | 33021 ft | 431 kts | 347° |
| 2026-04-27 21:33 | 30.08411 | 75.27693 | 32516 ft | 433 kts | 348° |
| 2026-04-27 21:33 | 30.11438 | 75.27198 | 31966 ft | 435 kts | 348° |
| 2026-04-27 21:33 | 30.14404 | 75.26714 | 31433 ft | 432 kts | 348° |
| 2026-04-27 21:34 | 30.17393 | 75.26227 | 30887 ft | 429 kts | 348° |
| 2026-04-27 21:34 | 30.20359 | 75.25743 | 30351 ft | 425 kts | 348° |
| 2026-04-27 21:34 | 30.23250 | 75.25272 | 29821 ft | 422 kts | 348° |
| 2026-04-27 21:34 | 30.26170 | 75.24796 | 29281 ft | 419 kts | 348° |
| 2026-04-27 21:35 | 30.29068 | 75.24323 | 28766 ft | 415 kts | 348° |
| 2026-04-27 21:35 | 30.31903 | 75.23860 | 28244 ft | 412 kts | 348° |
| 2026-04-27 21:35 | 30.34757 | 75.23392 | 27719 ft | 410 kts | 348° |
| 2026-04-27 21:35 | 30.37552 | 75.22934 | 27199 ft | 407 kts | 348° |
| 2026-04-27 21:36 | 30.40354 | 75.22474 | 26677 ft | 404 kts | 348° |
| 2026-04-27 21:36 | 30.43129 | 75.22018 | 26158 ft | 401 kts | 349° |
| 2026-04-27 21:36 | 30.45860 | 75.21568 | 25651 ft | 398 kts | 349° |
| 2026-04-27 21:36 | 30.48611 | 75.21116 | 25130 ft | 395 kts | 349° |
| 2026-04-27 21:37 | 30.51301 | 75.20674 | 24627 ft | 392 kts | 349° |
| 2026-04-27 21:37 | 30.54014 | 75.20229 | 24113 ft | 389 kts | 349° |
| 2026-04-27 21:37 | 30.56662 | 75.19794 | 23608 ft | 386 kts | 350° |
| 2026-04-27 21:37 | 30.59320 | 75.19357 | 23103 ft | 383 kts | 350° |
| 2026-04-27 21:38 | 30.61965 | 75.18921 | 22607 ft | 380 kts | 350° |
| 2026-04-27 21:38 | 30.64560 | 75.18493 | 22120 ft | 377 kts | 350° |
| 2026-04-27 21:38 | 30.67171 | 75.18061 | 21625 ft | 374 kts | 350° |
| 2026-04-27 21:38 | 30.69706 | 75.17642 | 21142 ft | 371 kts | 350° |
| 2026-04-27 21:39 | 30.72264 | 75.17220 | 20653 ft | 368 kts | 350° |
| 2026-04-27 21:39 | 30.74810 | 75.16800 | 20168 ft | 365 kts | 350° |
| 2026-04-27 21:39 | 30.77301 | 75.16341 | 19670 ft | 362 kts | 347° |
| 2026-04-27 21:39 | 30.79724 | 75.15526 | 19173 ft | 358 kts | 336° |
| 2026-04-27 21:40 | 30.81860 | 75.14153 | 18681 ft | 353 kts | 323° |
| 2026-04-27 21:40 | 30.83781 | 75.12339 | 18198 ft | 350 kts | 317° |
| 2026-04-27 21:40 | 30.85559 | 75.10443 | 17707 ft | 348 kts | 316° |
| 2026-04-27 21:40 | 30.87313 | 75.08501 | 17223 ft | 345 kts | 315° |
| 2026-04-27 21:41 | 30.89051 | 75.06564 | 16741 ft | 343 kts | 315° |
| 2026-04-27 21:41 | 30.90760 | 75.04674 | 16269 ft | 340 kts | 315° |
| 2026-04-27 21:41 | 30.92482 | 75.02782 | 15789 ft | 338 kts | 316° |
| 2026-04-27 21:41 | 30.94177 | 75.00929 | 15321 ft | 335 kts | 316° |
| 2026-04-27 21:42 | 30.95881 | 74.99073 | 14857 ft | 332 kts | 316° |
| 2026-04-27 21:42 | 30.97542 | 74.97263 | 14393 ft | 329 kts | 316° |
| 2026-04-27 21:42 | 30.99213 | 74.95443 | 13935 ft | 325 kts | 316° |
| 2026-04-27 21:42 | 31.00852 | 74.93656 | 13493 ft | 322 kts | 316° |
| 2026-04-27 21:43 | 31.02488 | 74.91872 | 13035 ft | 319 kts | 316° |
| 2026-04-27 21:43 | 31.04102 | 74.90108 | 12593 ft | 315 kts | 316° |
| 2026-04-27 21:43 | 31.05683 | 74.88380 | 12164 ft | 312 kts | 316° |
| 2026-04-27 21:43 | 31.07254 | 74.86662 | 11730 ft | 309 kts | 316° |
| 2026-04-27 21:44 | 31.08820 | 74.84949 | 11299 ft | 306 kts | 316° |
| 2026-04-27 21:44 | 31.10378 | 74.83244 | 10867 ft | 303 kts | 316° |
| 2026-04-27 21:44 | 31.11899 | 74.81580 | 10452 ft | 300 kts | 316° |
| 2026-04-27 21:44 | 31.13422 | 74.79913 | 10039 ft | 298 kts | 316° |
| 2026-04-27 21:45 | 31.14919 | 74.78272 | 9816 ft | 288 kts | 316° |
| 2026-04-27 21:45 | 31.16336 | 74.76719 | 9668 ft | 277 kts | 317° |
| 2026-04-27 21:45 | 31.17738 | 74.75181 | 9330 ft | 274 kts | 317° |
| 2026-04-27 21:45 | 31.19128 | 74.73655 | 8973 ft | 272 kts | 317° |
| 2026-04-27 21:46 | 31.20498 | 74.72151 | 8634 ft | 269 kts | 317° |
| 2026-04-27 21:46 | 31.21845 | 74.70673 | 8301 ft | 267 kts | 316° |
| 2026-04-27 21:46 | 31.23198 | 74.69187 | 7963 ft | 265 kts | 316° |
| 2026-04-27 21:46 | 31.24526 | 74.67728 | 7633 ft | 263 kts | 316° |
| 2026-04-27 21:47 | 31.25859 | 74.66262 | 7300 ft | 261 kts | 316° |
| 2026-04-27 21:47 | 31.27201 | 74.64785 | 6966 ft | 267 kts | 316° |
| 2026-04-27 21:47 | 31.28557 | 74.63295 | 6618 ft | 267 kts | 316° |
| 2026-04-27 21:47 | 31.29910 | 74.61806 | 6286 ft | 265 kts | 316° |
| 2026-04-27 21:48 | 31.31236 | 74.60346 | 5950 ft | 262 kts | 316° |
| 2026-04-27 21:48 | 31.32567 | 74.58881 | 5612 ft | 260 kts | 316° |
| 2026-04-27 21:48 | 31.33822 | 74.57390 | 5278 ft | 257 kts | 308° |
| 2026-04-27 21:48 | 31.34671 | 74.55569 | 4955 ft | 253 kts | 283° |
| 2026-04-27 21:49 | 31.34812 | 74.53580 | 4827 ft | 242 kts | 270° |
| 2026-04-27 21:49 | 31.34770 | 74.51627 | 4759 ft | 239 kts | 270° |
| 2026-04-27 21:49 | 31.34745 | 74.49676 | 4615 ft | 240 kts | 271° |
| 2026-04-27 21:49 | 31.34752 | 74.47745 | 4369 ft | 235 kts | 271° |
| 2026-04-27 21:50 | 31.34775 | 74.45822 | 4086 ft | 233 kts | 271° |
| 2026-04-27 21:50 | 31.34804 | 74.43966 | 3804 ft | 227 kts | 274° |
| 2026-04-27 21:50 | 31.35039 | 74.42199 | 3703 ft | 213 kts | 291° |
| 2026-04-27 21:50 | 31.35855 | 74.40860 | 3691 ft | 199 kts | 322° |
| 2026-04-27 21:51 | 31.37090 | 74.40167 | 3473 ft | 199 kts | 342° |
| 2026-04-27 21:51 | 31.38512 | 74.40057 | 3083 ft | 206 kts | 5° |
| 2026-04-27 21:51 | 31.39900 | 74.40284 | 2730 ft | 201 kts | 0° |
| 2026-04-27 21:51 | 31.41250 | 74.40302 | 2454 ft | 183 kts | 354° |
| 2026-04-27 21:52 | 31.42479 | 74.40280 | 2223 ft | 166 kts | 356° |
| 2026-04-27 21:52 | 31.43577 | 74.40313 | 2074 ft | 153 kts | 357° |
| 2026-04-27 21:52 | 31.44672 | 74.40331 | 1843 ft | 155 kts | 356° |
| 2026-04-27 21:52 | 31.45742 | 74.40344 | 1644 ft | 154 kts | 357° |
| 2026-04-27 21:53 | 31.46794 | 74.40382 | 1399 ft | 151 kts | 359° |
| 2026-04-27 21:53 | 31.47835 | 74.40397 | 1266 ft | 147 kts | 358° |
| 2026-04-27 21:53 | 31.48883 | 74.40396 | 1100 ft | 150 kts | 359° |
| 2026-04-27 21:53 | 31.49908 | 74.40422 | 887 ft | 146 kts | 360° |
| 2026-04-27 21:54 | 31.50920 | 74.40437 | 708 ft | 139 kts | 1° |
| 2026-04-27 21:54 | 31.51660 | 74.40447 | 706 ft | 72 kts | 1° |
| 2026-04-27 21:54 | 31.52005 | 74.40455 | 709 ft | 32 kts | 2° |
| 2026-04-27 21:54 | 31.52245 | 74.40458 | 711 ft | 43 kts | 359° |
| 2026-04-27 21:55 | 31.52554 | 74.40463 | 712 ft | 42 kts | 1° |
| 2026-04-27 21:55 | 31.52792 | 74.40500 | 712 ft | 30 kts | 47° |
| 2026-04-27 21:55 | 31.52735 | 74.40679 | 712 ft | 26 kts | 173° |
| 2026-04-27 21:55 | 31.52551 | 74.40676 | 712 ft | 25 kts | 180° |
| 2026-04-27 21:56 | 31.52412 | 74.40744 | 712 ft | 23 kts | 99° |
| 2026-04-27 21:56 | 31.52251 | 74.40897 | 712 ft | 10 kts | 107° |
| 2026-04-27 21:56 | 31.52236 | 74.40936 | 712 ft | 1 kts | 134° |
| 2026-04-27 21:57 | 31.52229 | 74.40943 | 712 ft | 0 kts | 130° |
| 2026-04-27 21:57 | 31.52226 | 74.40947 | 712 ft | 0 kts | 136° |
| 2026-04-27 21:57 | 31.52224 | 74.40950 | 712 ft | 0 kts | 136° |